Time;durP1;ratioP1;P1;durP2;ratioP2;P2;SDS_P1;SDS_P2;PMS_P1;PMS_P2;Temp;Humidity;BMP_temperature;BMP_pressure;BME280_temperature;BME280_humidity;BME280_pressure;Samples;Min_cycle;Max_cycle;Signal;HPM_P1;HPM_P2
2022/05/06 00:01:58;;;;;;;3.40;2.67;;;;;;;7.50;100.00;91476.44;5023287;28;20026;-66
2022/05/06 00:04:24;;;;;;;2.60;2.40;;;;;;;7.56;100.00;91477.19;5022692;28;20036;-66
2022/05/06 00:06:51;;;;;;;2.72;2.53;;;;;;;7.55;100.00;91475.59;5021521;28;20029;-67
2022/05/06 00:09:19;;;;;;;3.08;2.35;;;;;;;7.55;100.00;91470.31;5023367;28;20129;-67
2022/05/06 00:11:44;;;;;;;3.65;2.70;;;;;;;7.55;100.00;91474.81;5022926;28;20496;-66
2022/05/06 00:14:11;;;;;;;3.20;2.17;;;;;;;7.55;100.00;91475.59;5021435;28;20052;-66
2022/05/06 00:16:36;;;;;;;3.17;2.15;;;;;;;7.41;100.00;91464.84;5023246;28;20538;-67
2022/05/06 00:19:02;;;;;;;3.10;2.83;;;;;;;7.32;100.00;91466.50;5022275;28;20025;-67
2022/05/06 00:21:27;;;;;;;2.80;2.50;;;;;;;7.25;100.00;91466.00;5016926;28;20022;-66
2022/05/06 00:23:53;;;;;;;3.58;2.92;;;;;;;7.22;100.00;91477.16;5013558;28;20476;-66
2022/05/06 00:26:18;;;;;;;2.50;2.30;;;;;;;7.24;100.00;91472.38;5013683;28;20026;-66
2022/05/06 00:28:44;;;;;;;3.17;2.45;;;;;;;7.24;100.00;91475.03;5013522;28;20623;-66
2022/05/06 00:31:09;;;;;;;3.45;2.65;;;;;;;7.22;100.00;91472.66;5013466;28;20029;-66
2022/05/06 00:33:34;;;;;;;4.75;3.05;;;;;;;7.28;100.00;91473.44;5013519;28;20037;-66
2022/05/06 00:36:02;;;;;;;7.13;4.40;;;;;;;7.27;100.00;91474.50;5013443;28;20104;-66
2022/05/06 00:38:28;;;;;;;4.57;3.33;;;;;;;7.31;100.00;91478.16;5013181;28;20507;-66
2022/05/06 00:40:54;;;;;;;4.53;3.20;;;;;;;7.41;100.00;91487.88;5013297;28;20030;-66
2022/05/06 00:43:21;;;;;;;4.05;2.92;;;;;;;7.40;100.00;91483.66;5013172;28;20034;-66
2022/05/06 00:45:54;;;;;;;4.40;3.60;;;;;;;7.37;100.00;91487.63;5012505;28;20041;-66
2022/05/06 00:48:22;;;;;;;;;;;;;;;7.29;100.00;91488.25;5013443;28;20034;-66
2022/05/06 00:50:49;;;;;;;3.10;2.80;;;;;;;7.18;100.00;91497.28;5013164;28;20339;-66
2022/05/06 00:53:15;;;;;;;3.40;3.00;;;;;;;7.13;100.00;91486.75;5013044;28;20030;-66
2022/05/06 00:55:42;;;;;;;3.15;2.85;;;;;;;7.14;100.00;91485.69;5012982;28;20037;-66
2022/05/06 00:58:09;;;;;;;2.88;2.58;;;;;;;7.07;100.00;91485.97;5012874;28;20033;-66
2022/05/06 01:00:34;;;;;;;3.90;2.90;;;;;;;7.18;100.00;91494.66;5012947;28;20185;-66
2022/05/06 01:03:00;;;;;;;2.95;2.65;;;;;;;7.16;100.00;91479.03;5012815;28;20104;-66
2022/05/06 01:05:26;;;;;;;3.92;2.78;;;;;;;7.15;100.00;91481.97;5012900;28;20458;-66
2022/05/06 01:07:52;;;;;;;3.95;2.97;;;;;;;7.19;100.00;91483.00;5012752;28;20045;-66
2022/05/06 01:10:20;;;;;;;5.65;3.05;;;;;;;7.21;100.00;91489.59;5012991;28;20030;-66
2022/05/06 01:12:46;;;;;;;3.13;2.80;;;;;;;7.18;100.00;91487.50;5012989;28;20101;-66
2022/05/06 01:15:22;;;;;;;4.93;3.35;;;;;;;7.13;100.00;91495.47;5012440;28;20029;-66
2022/05/06 01:17:50;;;;;;;3.45;3.15;;;;;;;7.08;100.00;91492.06;5012535;28;20372;-66
2022/05/06 01:20:18;;;;;;;3.90;2.90;;;;;;;6.95;100.00;91495.31;5012592;28;20030;-66
2022/05/06 01:22:48;;;;;;;4.35;2.75;;;;;;;6.86;100.00;91495.88;5012342;28;20028;-66
2022/05/06 01:25:14;;;;;;;3.40;2.63;;;;;;;6.79;100.00;91499.88;5012418;28;20022;-66
2022/05/06 01:28:02;;;;;;;3.42;2.50;;;;;;;6.66;100.00;91484.59;5012192;28;20049;-66
2022/05/06 01:30:39;;;;;;;3.85;3.28;;;;;;;6.62;100.00;91489.59;5012336;28;20026;-66
2022/05/06 01:33:07;;;;;;;2.78;2.53;;;;;;;6.57;100.00;91487.00;5012226;28;20033;-66
2022/05/06 01:35:38;;;;;;;3.70;2.53;;;;;;;6.46;100.00;91474.88;5012198;28;20076;-66
2022/05/06 01:38:05;;;;;;;9.13;2.83;;;;;;;6.48;100.00;91480.69;5012230;28;20065;-66
2022/05/06 01:40:41;;;;;;;2.80;2.60;;;;;;;6.44;100.00;91477.00;5012139;28;20036;-66
2022/05/06 01:43:11;;;;;;;3.67;2.40;;;;;;;6.37;100.00;91477.28;5011998;28;20061;-66
2022/05/06 01:45:38;;;;;;;2.78;2.58;;;;;;;6.37;100.00;91481.78;5012178;28;20028;-66
2022/05/06 01:48:05;;;;;;;3.00;2.60;;;;;;;6.38;100.00;91473.59;5012050;28;20045;-66
2022/05/06 01:50:32;;;;;;;3.38;2.15;;;;;;;6.38;100.00;91472.78;5012983;28;20030;-66
2022/05/06 01:52:59;;;;;;;2.78;2.55;;;;;;;6.36;100.00;91480.22;5014261;28;20036;-66
2022/05/06 01:55:24;;;;;;;3.55;3.17;;;;;;;6.39;100.00;91479.66;5012544;28;20034;-66
2022/05/06 01:57:50;;;;;;;3.15;2.85;;;;;;;6.42;100.00;91479.91;5011920;28;20488;-66
2022/05/06 02:00:16;;;;;;;2.35;2.13;;;;;;;6.59;100.00;91474.28;5011927;28;20032;-66
2022/05/06 02:02:41;;;;;;;2.65;2.45;;;;;;;6.67;100.00;91475.59;5011813;28;20022;-66
2022/05/06 02:05:19;;;;;;;4.43;3.10;;;;;;;6.67;100.00;91471.09;5011725;28;20028;-66
2022/05/06 02:07:49;;;;;;;2.67;2.47;;;;;;;6.61;100.00;91472.16;5011626;28;20033;-66
2022/05/06 02:10:16;;;;;;;2.92;2.63;;;;;;;6.58;100.00;91478.78;5011635;28;20419;-66
2022/05/06 02:12:42;;;;;;;2.88;2.63;;;;;;;6.40;100.00;91483.88;5011463;28;20029;-66
2022/05/06 02:15:10;;;;;;;2.75;2.42;;;;;;;6.30;100.00;91482.84;5011608;28;20030;-66
2022/05/06 02:17:38;;;;;;;2.95;2.53;;;;;;;6.24;100.00;91486.56;5011393;28;20026;-66
2022/05/06 02:20:05;;;;;;;3.95;2.55;;;;;;;6.23;100.00;91490.28;5011630;28;20030;-66
2022/05/06 02:22:31;;;;;;;2.55;2.22;;;;;;;6.23;100.00;91482.34;5011473;28;20064;-66
2022/05/06 02:24:56;;;;;;;2.38;2.17;;;;;;;6.18;100.00;91479.72;5011614;28;20030;-67
2022/05/06 02:27:22;;;;;;;4.90;2.35;;;;;;;6.17;100.00;91478.16;5011218;28;20053;-67
2022/05/06 02:35:16;;;;;;;3.15;2.33;;;;;;;6.15;100.00;91482.88;5011455;28;20411;-67
2022/05/06 02:37:42;;;;;;;3.53;2.85;;;;;;;6.09;100.00;91480.53;5011303;28;20022;-67
2022/05/06 02:40:11;;;;;;;3.00;2.30;;;;;;;6.09;100.00;91486.59;5011464;28;20037;-66
2022/05/06 02:42:37;;;;;;;3.67;2.38;;;;;;;6.04;100.00;91489.25;5011254;28;20075;-66
2022/05/06 02:45:03;;;;;;;3.55;3.08;;;;;;;6.01;100.00;91487.16;5011414;28;20466;-66
2022/05/06 02:47:29;;;;;;;3.17;2.45;;;;;;;5.86;100.00;91474.75;5011192;28;20025;-66
2022/05/06 02:49:55;;;;;;;2.50;2.28;;;;;;;5.89;100.00;91481.34;5011258;28;20416;-67
2022/05/06 02:52:22;;;;;;;6.15;2.38;;;;;;;5.94;100.00;91490.06;5027206;28;20112;-67
2022/05/06 02:54:47;;;;;;;3.30;2.35;;;;;;;5.94;100.00;91489.25;5030968;28;20026;-66
2022/05/06 02:57:14;;;;;;;2.40;2.20;;;;;;;6.04;100.00;91483.97;5012952;28;20038;-66
2022/05/06 02:59:39;;;;;;;4.38;2.67;;;;;;;6.02;100.00;91486.09;5030977;28;20133;-66
2022/05/06 03:02:05;;;;;;;2.70;2.42;;;;;;;6.00;100.00;91490.84;5031090;28;20125;-66
2022/05/06 03:04:31;;;;;;;2.72;2.45;;;;;;;6.04;100.00;91491.13;5030772;28;20411;-66
2022/05/06 03:06:57;;;;;;;5.47;2.25;;;;;;;6.03;100.00;91484.25;5030625;28;20044;-66
2022/05/06 03:09:23;;;;;;;2.60;2.40;;;;;;;6.04;100.00;91494.53;5030847;28;20033;-66
2022/05/06 03:11:48;;;;;;;3.55;2.88;;;;;;;6.08;100.00;91485.03;5030871;28;20029;-66
2022/05/06 03:14:14;;;;;;;2.88;2.53;;;;;;;6.04;100.00;91480.53;5030820;28;20488;-67
2022/05/06 03:16:39;;;;;;;2.88;2.50;;;;;;;5.99;100.00;91489.25;5012863;28;20119;-67
2022/05/06 03:19:05;;;;;;;3.65;2.70;;;;;;;6.06;100.00;91487.16;5030778;28;20171;-67
2022/05/06 03:21:30;;;;;;;2.78;2.28;;;;;;;6.08;100.00;91482.38;5030602;28;20037;-67
2022/05/06 03:23:58;;;;;;;3.00;2.67;;;;;;;6.22;100.00;91488.69;5035582;28;20037;-66
2022/05/06 03:26:24;;;;;;;4.55;2.75;;;;;;;6.22;100.00;91483.41;5049096;28;20407;-66
2022/05/06 03:28:49;;;;;;;2.80;2.60;;;;;;;6.08;100.00;91485.03;5050234;28;20061;-67
2022/05/06 03:31:18;;;;;;;3.13;2.25;;;;;;;6.14;100.00;91485.78;5050449;28;20146;-66
2022/05/06 03:33:44;;;;;;;3.78;2.67;;;;;;;6.14;100.00;91491.88;5050577;28;20029;-66
2022/05/06 03:36:10;;;;;;;3.53;2.70;;;;;;;6.24;100.00;91494.50;5050426;28;20448;-66
2022/05/06 03:38:36;;;;;;;4.80;2.90;;;;;;;6.22;100.00;91488.69;5050455;28;20023;-66
2022/05/06 03:41:01;;;;;;;2.70;2.45;;;;;;;6.23;100.00;91492.91;5054027;28;20163;-66
2022/05/06 03:43:30;;;;;;;2.70;2.50;;;;;;;6.24;100.00;91491.84;5054012;28;20037;-66
2022/05/06 03:45:55;;;;;;;4.63;2.17;;;;;;;6.33;100.00;91499.25;5054026;28;20024;-66
2022/05/06 03:48:24;;;;;;;3.08;2.53;;;;;;;6.24;100.00;91496.34;5053940;28;20480;-66
2022/05/06 03:53:38;;;;;;;3.30;2.60;;;;;;;6.18;100.00;91500.88;5054158;28;20035;-66
2022/05/06 03:56:04;;;;;;;3.90;2.70;;;;;;;6.20;100.00;91490.81;5053757;28;20029;-66
2022/05/06 03:58:32;;;;;;;3.40;2.78;;;;;;;6.35;100.00;91500.56;5053737;28;20568;-66
2022/05/06 04:00:58;;;;;;;2.97;2.72;;;;;;;6.61;100.00;91498.59;5053771;28;20025;-66
2022/05/06 04:03:23;;;;;;;2.97;2.70;;;;;;;6.73;100.00;91503.59;5053763;28;20147;-65
2022/05/06 04:05:49;;;;;;;3.03;2.72;;;;;;;6.71;100.00;91503.88;5053672;28;20083;-66
2022/05/06 04:08:14;;;;;;;2.50;2.10;;;;;;;6.64;100.00;91502.59;5053551;28;20020;-65
2022/05/06 04:10:40;;;;;;;2.50;2.03;;;;;;;6.61;100.00;91504.69;5053809;28;20029;-65
2022/05/06 04:13:06;;;;;;;2.97;2.28;;;;;;;6.83;100.00;91503.56;5054377;28;20074;-66
2022/05/06 04:15:35;;;;;;;2.85;2.55;;;;;;;6.94;100.00;91504.28;5054285;28;20063;-66
2022/05/06 04:18:03;;;;;;;3.95;2.80;;;;;;;6.86;100.00;91514.38;5053391;28;20457;-66
2022/05/06 04:23:30;;;;;;;4.85;2.92;;;;;;;7.00;100.00;91503.22;5053217;28;20036;-66
2022/05/06 04:26:01;;;;;;;4.85;3.10;;;;;;;7.19;100.00;91509.47;5053395;28;20146;-66
2022/05/06 04:28:28;;;;;;;4.55;2.90;;;;;;;7.26;100.00;91512.59;5052954;28;20518;-66
2022/05/06 04:30:54;;;;;;;5.82;3.10;;;;;;;7.36;100.00;91512.53;5053162;28;20082;-66
2022/05/06 04:33:21;;;;;;;6.20;3.50;;;;;;;7.35;100.00;91512.81;5053087;28;20025;-66
2022/05/06 04:35:47;;;;;;;4.32;3.38;;;;;;;7.65;100.00;91517.09;5053282;28;20086;-66
2022/05/06 04:38:13;;;;;;;16.27;6.55;;;;;;;7.91;100.00;91517.72;5053081;28;20052;-66
2022/05/06 04:40:40;;;;;;;11.68;6.50;;;;;;;8.07;100.00;91517.31;5053006;28;20103;-66
2022/05/06 04:43:06;;;;;;;6.97;4.57;;;;;;;8.25;100.00;91513.16;5034785;28;20470;-66
2022/05/06 04:45:35;;;;;;;8.98;3.70;;;;;;;8.46;100.00;91519.09;5052890;28;20033;-66
2022/05/06 04:48:01;;;;;;;3.60;3.10;;;;;;;8.62;100.00;91522.38;5052538;28;20025;-67
2022/05/06 04:50:27;;;;;;;8.55;3.47;;;;;;;8.74;100.00;91508.72;5052027;28;20029;-67
2022/05/06 04:52:53;;;;;;;7.28;4.38;;;;;;;8.80;100.00;91518.19;5052647;28;20025;-67
2022/05/06 04:55:19;;;;;;;6.20;3.95;;;;;;;8.64;100.00;91522.88;5052643;28;20032;-66
2022/05/06 04:57:44;;;;;;;3.20;2.80;;;;;;;8.39;100.00;91534.53;5052570;28;20063;-66
2022/05/06 05:00:10;;;;;;;3.55;3.05;;;;;;;8.16;100.00;91527.28;5052696;28;20044;-66
2022/05/06 05:02:37;;;;;;;6.70;4.18;;;;;;;8.36;100.00;91533.25;5052594;28;20515;-67
2022/05/06 05:05:03;;;;;;;6.18;2.90;;;;;;;8.54;100.00;91534.41;5052571;28;20025;-68
2022/05/06 05:07:29;;;;;;;3.72;3.08;;;;;;;8.58;100.00;91530.09;5052397;28;20054;-67
2022/05/06 05:09:54;;;;;;;22.48;4.35;;;;;;;8.83;100.00;91530.88;5052495;28;20525;-66
2022/05/06 05:12:20;;;;;;;3.90;3.13;;;;;;;8.95;100.00;91528.63;5052452;28;20502;-66
2022/05/06 05:14:45;;;;;;;5.63;3.50;;;;;;;9.04;100.00;91536.78;5052388;28;20021;-66
2022/05/06 05:17:13;;;;;;;5.32;4.13;;;;;;;9.24;100.00;91537.31;5052178;28;20116;-66
2022/05/06 05:19:39;;;;;;;7.00;5.15;;;;;;;9.42;100.00;91529.63;5052280;28;20441;-67
2022/05/06 05:22:05;;;;;;;11.88;5.75;;;;;;;9.37;100.00;91525.19;5052160;28;20036;-66
2022/05/06 05:24:30;;;;;;;8.82;4.88;;;;;;;9.33;100.00;91528.72;5052165;28;20032;-67
2022/05/06 05:26:57;;;;;;;6.85;4.43;;;;;;;9.51;100.00;91538.56;5051876;28;20024;-67
2022/05/06 05:29:23;;;;;;;6.28;4.07;;;;;;;9.90;100.00;91540.91;5052070;28;20035;-67
2022/05/06 05:31:50;;;;;;;4.85;4.10;;;;;;;10.03;100.00;91536.72;5052043;28;20099;-66
2022/05/06 05:34:15;;;;;;;6.57;4.60;;;;;;;10.60;100.00;91538.22;5051987;28;20547;-66
2022/05/06 05:36:41;;;;;;;6.40;4.40;;;;;;;10.86;100.00;91551.81;5051890;28;20107;-66
2022/05/06 05:39:07;;;;;;;19.45;12.63;;;;;;;11.08;100.00;91537.84;5052080;28;20032;-66
2022/05/06 05:41:33;;;;;;;12.50;7.03;;;;;;;11.16;100.00;91536.34;5051827;28;20119;-66
2022/05/06 05:49:29;;;;;;;8.02;5.18;;;;;;;11.85;100.00;91540.53;5051718;28;20185;-67
2022/05/06 05:51:55;;;;;;;5.65;4.47;;;;;;;11.43;100.00;91530.22;5051703;28;20539;-67
2022/05/06 05:54:20;;;;;;;8.30;4.60;;;;;;;11.61;100.00;91537.28;5051419;28;20025;-67
2022/05/06 05:56:46;;;;;;;7.30;4.78;;;;;;;11.45;100.00;91522.72;5051421;28;20083;-67
2022/05/06 05:59:11;;;;;;;6.15;3.90;;;;;;;11.90;100.00;91536.97;5033451;28;20049;-67
2022/05/06 06:01:37;;;;;;;6.78;4.60;;;;;;;11.90;100.00;91536.97;5051233;28;20048;-66
2022/05/06 06:04:03;;;;;;;9.77;4.20;;;;;;;11.79;100.00;91531.06;5051352;28;20078;-66
2022/05/06 06:06:29;;;;;;;6.38;4.78;;;;;;;12.17;100.00;91533.41;5051339;28;20425;-67
2022/05/06 06:08:54;;;;;;;8.23;5.30;;;;;;;12.83;100.00;91529.88;5051321;28;20025;-66
2022/05/06 06:11:20;;;;;;;14.30;8.45;;;;;;;13.15;100.00;91530.66;5051373;28;20544;-68
2022/05/06 06:13:45;;;;;;;21.33;11.45;;;;;;;14.12;93.72;91534.00;5051307;28;20025;-67
2022/05/06 06:16:11;;;;;;;85.72;46.17;;;;;;;15.25;83.93;91539.97;5051207;28;20035;-66
2022/05/06 06:18:36;;;;;;;18.63;11.25;;;;;;;15.96;77.58;91533.97;5051145;28;20487;-67
2022/05/06 06:21:02;;;;;;;31.95;18.38;;;;;;;16.26;74.00;91530.09;5051125;28;20408;-67
2022/05/06 06:23:30;;;;;;;7.63;5.80;;;;;;;15.83;73.94;91530.41;5051074;28;20052;-67
2022/05/06 06:25:56;;;;;;;8.50;5.68;;;;;;;15.06;77.28;91524.28;5016019;28;20037;-67
2022/05/06 06:28:21;;;;;;;6.80;5.32;;;;;;;16.16;74.95;91520.53;5010976;28;20433;-67
2022/05/06 06:30:47;;;;;;;10.68;4.93;;;;;;;17.68;68.26;91523.44;5010759;28;20033;-68
2022/05/06 06:33:12;;;;;;;5.95;4.43;;;;;;;18.83;63.64;91529.16;5011216;28;20475;-68
2022/05/06 06:35:38;;;;;;;6.43;4.70;;;;;;;19.18;59.05;91531.22;4993219;28;20025;-65
2022/05/06 06:38:04;;;;;;;7.07;4.32;;;;;;;19.93;57.51;91520.34;5013897;28;20025;-71
2022/05/06 06:40:29;;;;;;;7.70;5.28;;;;;;;20.32;54.26;91509.63;5012248;28;20127;-67
2022/05/06 06:43:00;;;;;;;6.82;4.10;;;;;;;19.20;56.76;91525.47;5031181;28;20083;-69
2022/05/06 06:45:25;;;;;;;7.47;4.75;;;;;;;20.52;54.44;91513.97;5011377;28;20030;-67
2022/05/06 06:47:51;;;;;;;11.50;7.45;;;;;;;21.03;53.30;91524.63;5011447;28;20079;-67
2022/05/06 06:50:16;;;;;;;13.57;7.05;;;;;;;20.25;55.20;91520.28;5022020;28;20159;-67
2022/05/06 06:52:42;;;;;;;13.32;8.07;;;;;;;21.18;53.00;91523.75;5030590;28;20029;-66
2022/05/06 06:55:08;;;;;;;12.02;8.30;;;;;;;19.75;54.64;91513.75;5030805;28;20033;-65
2022/05/06 06:57:33;;;;;;;10.93;8.07;;;;;;;19.65;56.66;91516.97;5013933;28;20414;-66
2022/05/06 06:59:59;;;;;;;9.60;6.80;;;;;;;21.17;54.82;91511.34;5028733;28;20044;-66
2022/05/06 07:02:24;;;;;;;10.55;7.22;;;;;;;19.86;55.53;91506.69;5030583;28;20040;-67
2022/05/06 07:04:51;;;;;;;8.52;5.70;;;;;;;19.66;56.72;91521.25;5030383;28;20029;-67
2022/05/06 07:12:44;;;;;;;11.57;6.30;;;;;;;17.81;63.53;91516.91;5030630;28;20149;-68
2022/05/06 07:15:10;;;;;;;7.18;5.68;;;;;;;18.53;62.83;91522.50;5032414;28;20101;-68
2022/05/06 07:17:35;;;;;;;8.00;6.20;;;;;;;18.65;61.81;91527.88;5034278;28;20079;-67
2022/05/06 07:20:01;;;;;;;16.73;9.50;;;;;;;19.21;61.44;91527.03;5034363;28;20021;-66
2022/05/06 07:22:26;;;;;;;19.13;11.00;;;;;;;19.90;58.26;91506.78;5034430;28;20089;-64
2022/05/06 07:24:52;;;;;;;14.55;8.70;;;;;;;20.98;55.46;91518.69;5034106;28;20033;-66
2022/05/06 07:27:18;;;;;;;8.75;5.03;;;;;;;21.72;54.38;91505.72;5025674;28;20133;-67
2022/05/06 07:29:43;;;;;;;8.88;5.60;;;;;;;20.94;55.62;91515.94;5015874;28;20068;-65
2022/05/06 07:32:09;;;;;;;11.00;6.05;;;;;;;21.02;55.44;91506.03;5014172;28;20802;-65
2022/05/06 07:34:36;;;;;;;6.95;5.10;;;;;;;20.33;56.79;91493.06;5014318;28;20026;-66
2022/05/06 07:37:01;;;;;;;6.47;5.10;;;;;;;21.29;53.69;91499.59;5014177;28;20084;-65
2022/05/06 07:39:27;;;;;;;8.38;5.00;;;;;;;22.39;51.15;91503.25;5014305;28;20026;-65
2022/05/06 07:41:52;;;;;;;5.50;4.07;;;;;;;22.53;49.98;91511.59;5014305;28;20485;-66
2022/05/06 07:44:18;;;;;;;8.15;5.10;;;;;;;23.53;49.54;91508.09;5013726;28;20045;-66
2022/05/06 07:46:43;;;;;;;5.25;4.30;;;;;;;23.02;49.27;91510.66;5013932;28;20041;-66
2022/05/06 07:49:09;;;;;;;10.30;4.10;;;;;;;23.95;47.68;91511.56;5014130;28;20026;-66
2022/05/06 07:51:34;;;;;;;4.85;3.88;;;;;;;23.48;48.47;91508.44;5014116;28;20033;-65
2022/05/06 07:54:02;;;;;;;7.18;4.20;;;;;;;21.75;50.64;91502.28;5014123;28;20478;-66
2022/05/06 07:56:29;;;;;;;6.28;4.28;;;;;;;21.26;52.63;91508.44;5013807;28;20026;-68
2022/05/06 07:58:54;;;;;;;4.60;3.65;;;;;;;22.35;50.42;91508.63;5013744;28;20034;-63
2022/05/06 08:06:53;;;;;;;7.28;4.00;;;;;;;23.62;46.55;91507.81;5013676;28;20172;-66
2022/05/06 08:09:19;;;;;;;3.58;3.22;;;;;;;23.71;45.43;91507.50;5013764;28;20082;-67
2022/05/06 08:11:46;;;;;;;3.53;3.22;;;;;;;24.51;44.82;91513.16;5013733;28;20088;-68
2022/05/06 08:14:16;;;;;;;4.03;3.30;;;;;;;23.83;45.40;91504.53;5011285;28;20026;-68
2022/05/06 08:16:46;;;;;;;6.45;3.60;;;;;;;26.33;42.38;91509.75;5013277;28;20500;-64
2022/05/06 08:19:13;;;;;;;10.98;4.60;;;;;;;25.36;43.26;91508.09;5013582;28;20496;-66
2022/05/06 08:21:39;;;;;;;3.72;3.00;;;;;;;24.21;43.25;91519.56;5013220;28;20511;-66
2022/05/06 08:24:06;;;;;;;6.05;3.22;;;;;;;26.21;41.86;91502.75;4995599;28;20040;-66
2022/05/06 08:26:32;;;;;;;5.22;3.58;;;;;;;25.91;42.46;91503.16;5018968;28;20033;-66
2022/05/06 08:28:57;;;;;;;3.45;3.15;;;;;;;24.98;41.96;91504.84;5032471;28;20049;-67
2022/05/06 08:31:22;;;;;;;3.80;3.17;;;;;;;26.09;40.80;91514.06;5033003;28;20037;-69
2022/05/06 08:33:48;;;;;;;8.57;3.30;;;;;;;24.32;41.77;91511.50;5032978;28;20403;-62
2022/05/06 08:36:14;;;;;;;4.65;3.20;;;;;;;22.94;44.52;91509.81;5032762;28;20411;-61
2022/05/06 08:38:39;;;;;;;4.57;3.40;;;;;;;20.07;49.26;91502.91;5014902;28;20040;-61
2022/05/06 08:41:05;;;;;;;14.35;3.25;;;;;;;20.22;49.96;91500.16;5032821;28;20025;-60
2022/05/06 08:43:31;;;;;;;4.43;3.45;;;;;;;20.44;49.28;91489.81;5019912;28;20061;-66
2022/05/06 08:51:33;;;;;;;3.63;3.28;;;;;;;23.28;44.44;91516.00;5013042;28;20109;-67
2022/05/06 08:53:59;;;;;;;3.45;3.00;;;;;;;20.37;48.11;91514.78;5012473;28;20030;-66
2022/05/06 08:56:25;;;;;;;12.30;7.88;;;;;;;19.79;50.45;91508.44;5012467;28;20025;-67
2022/05/06 08:58:50;;;;;;;6.47;4.82;;;;;;;20.46;50.64;91517.28;5012033;28;20034;-66
2022/05/06 09:01:21;;;;;;;4.68;3.80;;;;;;;21.60;48.41;91503.97;4994984;28;20034;-67
2022/05/06 09:03:48;;;;;;;4.55;3.53;;;;;;;21.47;48.28;91508.03;5012089;28;20072;-68
2022/05/06 09:06:20;;;;;;;6.65;3.20;;;;;;;23.50;44.72;91506.13;5011827;28;20022;-68
2022/05/06 09:08:47;;;;;;;7.60;4.13;;;;;;;22.07;46.41;91510.94;5012319;28;20441;-67
2022/05/06 09:11:13;;;;;;;4.00;3.50;;;;;;;22.50;45.93;91512.31;5012257;28;20022;-67
2022/05/06 09:13:55;;;;;;;5.22;2.90;;;;;;;19.79;49.25;91524.63;5020805;28;20067;-68
2022/05/06 09:16:39;;;;;;;3.03;2.38;;;;;;;18.90;50.04;91527.75;5012003;28;20515;-68
2022/05/06 09:19:23;;;;;;;4.60;3.38;;;;;;;19.13;51.01;91515.28;5011827;28;20457;-68
2022/05/06 09:22:09;;;;;;;4.85;3.30;;;;;;;20.10;49.61;91513.00;5012196;28;20025;-68
2022/05/06 09:24:37;;;;;;;3.42;3.10;;;;;;;21.98;47.27;91515.81;5031374;28;20036;-68
2022/05/06 09:27:11;;;;;;;4.30;3.05;;;;;;;21.85;46.25;91504.41;5030020;28;20057;-69
2022/05/06 09:29:47;;;;;;;2.60;2.40;;;;;;;21.44;45.69;91504.09;5011426;28;20037;-69
2022/05/06 09:32:16;;;;;;;4.65;3.25;;;;;;;22.36;44.26;91502.06;4994348;28;20034;-67
2022/05/06 09:34:43;;;;;;;3.92;2.90;;;;;;;22.07;43.40;91502.81;5011845;28;20018;-67
2022/05/06 09:37:09;;;;;;;2.55;2.35;;;;;;;20.50;46.50;91507.31;5011045;28;20523;-68
2022/05/06 09:39:38;;;;;;;3.30;2.88;;;;;;;20.48;47.94;91521.19;5011709;28;20026;-67
2022/05/06 09:42:06;;;;;;;5.75;3.63;;;;;;;21.55;45.87;91503.50;5012037;28;20053;-67
2022/05/06 09:44:34;;;;;;;5.95;3.20;;;;;;;20.37;47.14;91503.97;5011444;28;20498;-68
2022/05/06 09:47:11;;;;;;;3.47;3.17;;;;;;;20.27;47.24;91507.19;5012014;28;20044;-68
2022/05/06 09:49:41;;;;;;;6.25;3.25;;;;;;;20.67;46.62;91520.44;5012380;28;20026;-68
2022/05/06 09:52:11;;;;;;;4.25;2.90;;;;;;;19.52;47.67;91516.25;5011949;28;20036;-68
2022/05/06 09:54:39;;;;;;;4.40;2.92;;;;;;;19.55;47.97;91510.19;5011703;28;20026;-68
2022/05/06 09:57:06;;;;;;;5.90;2.83;;;;;;;20.07;47.85;91506.41;5011672;28;20551;-68
2022/05/06 09:59:32;;;;;;;3.38;2.85;;;;;;;20.63;48.76;91487.91;5011268;28;20033;-67
2022/05/06 10:01:58;;;;;;;3.38;3.08;;;;;;;21.10;46.80;91494.19;5011981;28;20056;-67
2022/05/06 10:04:23;;;;;;;3.72;2.90;;;;;;;21.29;46.78;91494.19;5011373;28;20400;-67
2022/05/06 10:06:49;;;;;;;3.72;2.88;;;;;;;20.79;49.17;91487.03;5011358;28;20022;-68
2022/05/06 10:09:20;;;;;;;4.75;3.35;;;;;;;20.72;48.58;91500.44;5011492;28;20124;-69
2022/05/06 10:11:46;;;;;;;6.05;3.67;;;;;;;21.13;48.16;91491.53;5011420;28;20065;-68
2022/05/06 10:14:15;;;;;;;3.90;3.15;;;;;;;21.42;47.36;91495.56;5010924;28;20037;-67
2022/05/06 10:16:41;;;;;;;3.85;3.33;;;;;;;20.22;48.35;91483.97;5011183;28;20036;-67
2022/05/06 10:19:28;;;;;;;4.75;3.55;;;;;;;19.72;48.91;91490.16;5011229;28;20029;-67
2022/05/06 10:21:55;;;;;;;19.92;11.25;;;;;;;20.15;48.31;91493.81;5011314;28;20026;-67
2022/05/06 10:24:21;;;;;;;4.88;3.80;;;;;;;20.77;47.78;91484.69;5011147;28;20083;-67
2022/05/06 10:26:48;;;;;;;3.20;2.47;;;;;;;20.78;45.39;91485.47;5010886;28;20388;-67
2022/05/06 10:33:03;;;;;;;4.72;2.78;;;;;;;21.88;42.66;91500.94;5028715;28;20060;-69
2022/05/06 10:35:39;;;;;;;3.15;2.75;;;;;;;20.22;44.75;91494.75;5030708;28;20108;-67
2022/05/06 10:38:21;;;;;;;2.88;2.50;;;;;;;19.79;42.43;91494.94;5030534;28;20033;-68
2022/05/06 10:40:57;;;;;;;4.22;3.38;;;;;;;20.30;43.55;91482.19;5012765;28;20041;-68
2022/05/06 10:43:45;;;;;;;3.05;2.40;;;;;;;21.43;41.32;91488.22;5030086;28;20491;-67
2022/05/06 10:46:13;;;;;;;3.35;2.33;;;;;;;19.82;40.38;91486.91;5030714;28;20036;-70
2022/05/06 10:48:39;;;;;;;3.00;2.22;;;;;;;19.42;42.96;91493.28;5030872;28;20030;-67
2022/05/06 10:51:24;;;;;;;2.88;2.35;;;;;;;19.68;41.89;91473.09;5034757;28;20120;-68
2022/05/06 10:53:50;;;;;;;2.25;2.05;;;;;;;20.57;41.08;91486.63;5017229;28;20388;-68
2022/05/06 10:56:16;;;;;;;2.38;2.03;;;;;;;20.31;40.91;91475.63;5034678;28;20025;-69
2022/05/06 10:58:42;;;;;;;2.40;2.20;;;;;;;20.50;42.06;91472.97;5034576;28;20025;-70
2022/05/06 11:01:17;;;;;;;2.50;2.30;;;;;;;21.35;41.33;91470.31;5016842;28;20033;-69
2022/05/06 11:03:55;;;;;;;3.72;3.17;;;;;;;22.32;40.01;91465.22;5034527;28;20037;-68
2022/05/06 11:06:24;;;;;;;3.42;1.98;;;;;;;23.63;37.19;91465.13;5034541;28;20049;-67
2022/05/06 11:08:50;;;;;;;3.50;2.47;;;;;;;24.31;37.67;91466.44;5034580;28;20554;-68
2022/05/06 11:11:17;;;;;;;5.97;3.15;;;;;;;24.79;37.97;91475.22;5034535;28;20026;-68
2022/05/06 11:13:45;;;;;;;3.33;2.10;;;;;;;23.91;36.44;91470.78;5033982;28;20017;-68
2022/05/06 11:16:12;;;;;;;3.00;2.63;;;;;;;24.50;37.69;91468.88;5034324;28;20029;-67
2022/05/06 11:18:42;;;;;;;4.18;2.33;;;;;;;25.01;37.63;91455.09;5034363;28;20028;-68
2022/05/06 11:21:24;;;;;;;2.25;2.00;;;;;;;24.65;36.70;91451.44;5033955;28;20032;-68
2022/05/06 11:23:50;;;;;;;4.05;2.50;;;;;;;23.14;40.07;91460.78;5034183;28;20116;-68
2022/05/06 11:26:27;;;;;;;2.75;2.55;;;;;;;24.26;39.25;91453.16;5020272;28;20022;-67
2022/05/06 11:29:03;;;;;;;8.32;5.00;;;;;;;25.80;39.96;91456.03;5028599;28;20041;-66
2022/05/06 11:31:29;;;;;;;3.40;2.78;;;;;;;26.56;36.47;91458.28;5033669;28;20069;-68
2022/05/06 11:34:03;;;;;;;2.22;2.03;;;;;;;24.15;34.98;91440.28;5034061;28;20516;-68
2022/05/06 11:36:29;;;;;;;3.70;2.70;;;;;;;24.98;36.19;91450.41;5033816;28;20030;-67
2022/05/06 11:38:54;;;;;;;2.72;2.17;;;;;;;23.71;38.93;91453.97;5033754;28;20120;-67
2022/05/06 11:41:20;;;;;;;3.08;2.50;;;;;;;21.92;41.82;91452.22;5034199;28;20039;-67
2022/05/06 11:43:47;;;;;;;2.53;2.33;;;;;;;21.97;41.07;91454.66;5033651;28;20056;-67
2022/05/06 11:49:05;;;;;;;9.65;2.97;;;;;;;22.96;42.15;91445.09;5034031;28;20160;-67
2022/05/06 11:51:52;;;;;;;3.22;2.53;;;;;;;21.03;41.18;91443.47;5033737;28;20037;-67
2022/05/06 11:54:18;;;;;;;2.55;2.35;;;;;;;21.74;41.18;91433.78;5033492;28;20033;-67
2022/05/06 11:56:44;;;;;;;3.17;2.40;;;;;;;22.25;40.23;91430.69;5033637;28;20075;-66
2022/05/06 11:59:10;;;;;;;2.35;2.15;;;;;;;23.42;39.50;91423.03;5033599;28;20499;-65
2022/05/06 12:01:38;;;;;;;3.63;2.70;;;;;;;24.33;38.26;91423.31;5033176;28;20069;-66
2022/05/06 12:04:09;;;;;;;2.33;2.10;;;;;;;25.98;35.92;91423.31;5033472;28;20040;-66
2022/05/06 12:06:56;;;;;;;2.83;2.08;;;;;;;26.71;34.36;91425.50;5015605;28;20080;-66
2022/05/06 12:09:21;;;;;;;2.40;2.08;;;;;;;24.99;35.98;91421.22;5033580;28;20420;-67
2022/05/06 12:12:02;;;;;;;2.33;2.10;;;;;;;23.62;35.16;91433.69;5021703;28;20033;-67
2022/05/06 12:14:27;;;;;;;4.53;2.20;;;;;;;24.45;36.93;91417.53;5053359;28;20033;-66